sensor_id;sensor_type;location;lat;lon;timestamp;pressure;altitude;pressure_sealevel;temperature;humidity
59274;BME280;45044;41.572;24.730;2023-07-29T00:01:57;91348.88;;;13.87;100.00
59274;BME280;45044;41.572;24.730;2023-07-29T00:04:24;91349.50;;;14.02;100.00
59274;BME280;45044;41.572;24.730;2023-07-29T00:06:50;91351.81;;;13.96;100.00
59274;BME280;45044;41.572;24.730;2023-07-29T00:09:17;91346.91;;;13.98;100.00
59274;BME280;45044;41.572;24.730;2023-07-29T00:11:44;91353.66;;;13.99;100.00
59274;BME280;45044;41.572;24.730;2023-07-29T00:14:11;91351.03;;;13.99;100.00
59274;BME280;45044;41.572;24.730;2023-07-29T00:16:37;91345.75;;;13.99;100.00
59274;BME280;45044;41.572;24.730;2023-07-29T00:19:05;91340.88;;;13.94;100.00
59274;BME280;45044;41.572;24.730;2023-07-29T00:21:32;91333.88;;;13.80;100.00
59274;BME280;45044;41.572;24.730;2023-07-29T00:23:58;91342.03;;;13.93;100.00
59274;BME280;45044;41.572;24.730;2023-07-29T00:26:27;91333.09;;;13.80;100.00
59274;BME280;45044;41.572;24.730;2023-07-29T00:28:58;91328.63;;;13.76;100.00
59274;BME280;45044;41.572;24.730;2023-07-29T00:31:25;91342.19;;;13.79;100.00
59274;BME280;45044;41.572;24.730;2023-07-29T00:33:52;91334.81;;;13.59;100.00
59274;BME280;45044;41.572;24.730;2023-07-29T00:36:19;91342.31;;;13.64;100.00
59274;BME280;45044;41.572;24.730;2023-07-29T00:38:46;91338.88;;;13.67;100.00
59274;BME280;45044;41.572;24.730;2023-07-29T00:41:13;91333.28;;;13.61;100.00
59274;BME280;45044;41.572;24.730;2023-07-29T00:43:41;91327.31;;;13.53;100.00
59274;BME280;45044;41.572;24.730;2023-07-29T00:46:09;91333.59;;;13.67;100.00
59274;BME280;45044;41.572;24.730;2023-07-29T00:48:37;91330.88;;;13.74;100.00
59274;BME280;45044;41.572;24.730;2023-07-29T00:51:04;91335.88;;;13.65;100.00
59274;BME280;45044;41.572;24.730;2023-07-29T00:53:31;91341.44;;;13.32;100.00
59274;BME280;45044;41.572;24.730;2023-07-29T00:55:58;91337.22;;;13.38;100.00
59274;BME280;45044;41.572;24.730;2023-07-29T00:58:24;91337.88;;;13.53;100.00
59274;BME280;45044;41.572;24.730;2023-07-29T01:00:51;91338.59;;;13.58;100.00
59274;BME280;45044;41.572;24.730;2023-07-29T01:03:19;91336.31;;;13.60;100.00
59274;BME280;45044;41.572;24.730;2023-07-29T01:06:08;91328.81;;;13.51;100.00
59274;BME280;45044;41.572;24.730;2023-07-29T01:08:56;91323.53;;;13.51;100.00
59274;BME280;45044;41.572;24.730;2023-07-29T01:11:58;91323.03;;;13.21;100.00
59274;BME280;45044;41.572;24.730;2023-07-29T01:14:44;91313.28;;;13.11;100.00
59274;BME280;45044;41.572;24.730;2023-07-29T01:17:19;91321.84;;;13.26;100.00
59274;BME280;45044;41.572;24.730;2023-07-29T01:20:00;91323.03;;;13.21;100.00
59274;BME280;45044;41.572;24.730;2023-07-29T01:22:29;91311.00;;;13.13;100.00
59274;BME280;45044;41.572;24.730;2023-07-29T01:24:58;91309.47;;;13.19;100.00
59274;BME280;45044;41.572;24.730;2023-07-29T01:27:26;91316.91;;;13.32;100.00
59274;BME280;45044;41.572;24.730;2023-07-29T01:29:54;91316.84;;;13.39;100.00
59274;BME280;45044;41.572;24.730;2023-07-29T01:37:50;91312.09;;;13.19;100.00
59274;BME280;45044;41.572;24.730;2023-07-29T01:40:18;91313.38;;;12.96;100.00
59274;BME280;45044;41.572;24.730;2023-07-29T01:42:45;91317.06;;;13.13;100.00
59274;BME280;45044;41.572;24.730;2023-07-29T01:45:12;91320.09;;;13.12;100.00
59274;BME280;45044;41.572;24.730;2023-07-29T01:47:39;91316.50;;;12.84;100.00
59274;BME280;45044;41.572;24.730;2023-07-29T01:50:08;91325.47;;;12.97;100.00
59274;BME280;45044;41.572;24.730;2023-07-29T01:52:35;91326.16;;;13.01;100.00
59274;BME280;45044;41.572;24.730;2023-07-29T01:55:02;91313.34;;;13.03;100.00
59274;BME280;45044;41.572;24.730;2023-07-29T01:57:29;91323.91;;;13.03;100.00
59274;BME280;45044;41.572;24.730;2023-07-29T02:00:06;91331.44;;;13.01;100.00
59274;BME280;45044;41.572;24.730;2023-07-29T02:02:33;91325.81;;;12.99;100.00
59274;BME280;45044;41.572;24.730;2023-07-29T02:05:01;91325.47;;;12.93;100.00
59274;BME280;45044;41.572;24.730;2023-07-29T02:07:27;91325.91;;;12.85;100.00
59274;BME280;45044;41.572;24.730;2023-07-29T02:09:54;91326.28;;;12.83;100.00
59274;BME280;45044;41.572;24.730;2023-07-29T02:12:21;91322.97;;;12.75;100.00
59274;BME280;45044;41.572;24.730;2023-07-29T02:14:48;91324.44;;;12.76;100.00
59274;BME280;45044;41.572;24.730;2023-07-29T02:17:15;91328.59;;;12.77;100.00
59274;BME280;45044;41.572;24.730;2023-07-29T02:19:42;91332.75;;;12.75;100.00
59274;BME280;45044;41.572;24.730;2023-07-29T02:22:10;91326.69;;;12.78;100.00
59274;BME280;45044;41.572;24.730;2023-07-29T02:24:37;91333.84;;;12.85;100.00
59274;BME280;45044;41.572;24.730;2023-07-29T02:27:04;91335.34;;;12.82;100.00
59274;BME280;45044;41.572;24.730;2023-07-29T02:29:31;91331.66;;;12.68;100.00
59274;BME280;45044;41.572;24.730;2023-07-29T02:31:59;91335.41;;;12.71;100.00
59274;BME280;45044;41.572;24.730;2023-07-29T02:34:26;91332.50;;;12.47;100.00
59274;BME280;45044;41.572;24.730;2023-07-29T02:36:53;91327.63;;;12.45;100.00
59274;BME280;45044;41.572;24.730;2023-07-29T02:39:20;91332.50;;;12.51;100.00
59274;BME280;45044;41.572;24.730;2023-07-29T02:41:47;91332.50;;;12.47;100.00
59274;BME280;45044;41.572;24.730;2023-07-29T02:44:13;91337.03;;;12.50;100.00
59274;BME280;45044;41.572;24.730;2023-07-29T02:46:40;91337.78;;;12.47;100.00
59274;BME280;45044;41.572;24.730;2023-07-29T02:49:07;91335.88;;;12.51;100.00
59274;BME280;45044;41.572;24.730;2023-07-29T02:51:34;91347.91;;;12.52;100.00
59274;BME280;45044;41.572;24.730;2023-07-29T02:54:01;91344.63;;;12.37;100.00
59274;BME280;45044;41.572;24.730;2023-07-29T02:56:28;91347.59;;;12.43;100.00
59274;BME280;45044;41.572;24.730;2023-07-29T02:58:54;91346.16;;;12.24;100.00
59274;BME280;45044;41.572;24.730;2023-07-29T03:01:22;91349.13;;;12.40;100.00
59274;BME280;45044;41.572;24.730;2023-07-29T03:03:51;91355.16;;;12.41;100.00
59274;BME280;45044;41.572;24.730;2023-07-29T03:06:18;91352.56;;;12.26;100.00
59274;BME280;45044;41.572;24.730;2023-07-29T03:08:45;91357.09;;;12.22;100.00
59274;BME280;45044;41.572;24.730;2023-07-29T03:11:13;91355.91;;;12.30;100.00
59274;BME280;45044;41.572;24.730;2023-07-29T03:13:40;91352.16;;;12.31;100.00
59274;BME280;45044;41.572;24.730;2023-07-29T03:16:09;91357.06;;;12.29;100.00
59274;BME280;45044;41.572;24.730;2023-07-29T03:18:37;91351.03;;;12.25;100.00
59274;BME280;45044;41.572;24.730;2023-07-29T03:21:04;91345.00;;;12.32;100.00
59274;BME280;45044;41.572;24.730;2023-07-29T03:23:32;91360.81;;;12.39;100.00
59274;BME280;45044;41.572;24.730;2023-07-29T03:26:01;91359.28;;;12.38;100.00
59274;BME280;45044;41.572;24.730;2023-07-29T03:28:29;91353.63;;;12.40;100.00
59274;BME280;45044;41.572;24.730;2023-07-29T03:30:56;91361.56;;;12.32;100.00
59274;BME280;45044;41.572;24.730;2023-07-29T03:33:24;91350.72;;;12.16;100.00
59274;BME280;45044;41.572;24.730;2023-07-29T03:35:52;91353.69;;;12.21;100.00
59274;BME280;45044;41.572;24.730;2023-07-29T03:38:19;91358.22;;;12.21;100.00
59274;BME280;45044;41.572;24.730;2023-07-29T03:40:46;91356.72;;;12.20;100.00
59274;BME280;45044;41.572;24.730;2023-07-29T03:43:12;91359.72;;;12.22;100.00
59274;BME280;45044;41.572;24.730;2023-07-29T03:45:40;91349.97;;;12.04;100.00
59274;BME280;45044;41.572;24.730;2023-07-29T03:48:07;91352.22;;;12.17;100.00
59274;BME280;45044;41.572;24.730;2023-07-29T03:50:35;91364.22;;;12.25;100.00
59274;BME280;45044;41.572;24.730;2023-07-29T03:53:03;91361.97;;;12.27;100.00
59274;BME280;45044;41.572;24.730;2023-07-29T03:55:31;91347.34;;;12.01;100.00
59274;BME280;45044;41.572;24.730;2023-07-29T03:58:04;91373.25;;;12.31;100.00
59274;BME280;45044;41.572;24.730;2023-07-29T04:00:31;91364.53;;;12.42;100.00
59274;BME280;45044;41.572;24.730;2023-07-29T04:02:57;91363.44;;;12.36;100.00
59274;BME280;45044;41.572;24.730;2023-07-29T04:05:24;91373.94;;;12.50;100.00
59274;BME280;45044;41.572;24.730;2023-07-29T04:07:51;91378.44;;;12.53;100.00
59274;BME280;45044;41.572;24.730;2023-07-29T04:10:19;91375.78;;;12.61;100.00
59274;BME280;45044;41.572;24.730;2023-07-29T04:12:46;91385.19;;;12.62;100.00
59274;BME280;45044;41.572;24.730;2023-07-29T04:15:13;91389.72;;;12.57;100.00
59274;BME280;45044;41.572;24.730;2023-07-29T04:17:39;91388.94;;;12.64;100.00
59274;BME280;45044;41.572;24.730;2023-07-29T04:20:07;91391.13;;;12.77;100.00
59274;BME280;45044;41.572;24.730;2023-07-29T04:22:34;91385.13;;;12.73;100.00
59274;BME280;45044;41.572;24.730;2023-07-29T04:25:01;91383.22;;;12.77;100.00
59274;BME280;45044;41.572;24.730;2023-07-29T04:27:28;91393.34;;;12.86;100.00
59274;BME280;45044;41.572;24.730;2023-07-29T04:29:55;91384.22;;;13.01;100.00
59274;BME280;45044;41.572;24.730;2023-07-29T04:32:22;91382.31;;;13.05;100.00
59274;BME280;45044;41.572;24.730;2023-07-29T04:34:49;91396.56;;;13.19;100.00
59274;BME280;45044;41.572;24.730;2023-07-29T04:37:16;91391.25;;;13.26;100.00
59274;BME280;45044;41.572;24.730;2023-07-29T04:39:42;91390.03;;;13.35;100.00
59274;BME280;45044;41.572;24.730;2023-07-29T04:42:09;91391.47;;;13.43;100.00
59274;BME280;45044;41.572;24.730;2023-07-29T04:44:36;91388.09;;;13.46;100.00
59274;BME280;45044;41.572;24.730;2023-07-29T04:47:03;91383.16;;;13.56;100.00
59274;BME280;45044;41.572;24.730;2023-07-29T04:49:29;91387.69;;;13.48;100.00
59274;BME280;45044;41.572;24.730;2023-07-29T04:51:56;91384.66;;;13.53;100.00
59274;BME280;45044;41.572;24.730;2023-07-29T04:54:23;91389.13;;;13.60;100.00
59274;BME280;45044;41.572;24.730;2023-07-29T04:56:50;91383.66;;;13.82;100.00
59274;BME280;45044;41.572;24.730;2023-07-29T04:59:16;91385.03;;;16.02;100.00
59274;BME280;45044;41.572;24.730;2023-07-29T05:01:43;91392.69;;;18.35;100.00
59274;BME280;45044;41.572;24.730;2023-07-29T05:04:10;91392.63;;;20.21;100.00
59274;BME280;45044;41.572;24.730;2023-07-29T05:06:37;91392.84;;;21.68;100.00
59274;BME280;45044;41.572;24.730;2023-07-29T05:09:25;91392.53;;;23.25;90.04
59274;BME280;45044;41.572;24.730;2023-07-29T05:11:54;91394.91;;;24.25;78.19
59274;BME280;45044;41.572;24.730;2023-07-29T05:14:21;91385.22;;;25.28;68.09
59274;BME280;45044;41.572;24.730;2023-07-29T05:16:48;91387.06;;;26.08;62.28
59274;BME280;45044;41.572;24.730;2023-07-29T05:19:15;91390.19;;;27.17;54.70
59274;BME280;45044;41.572;24.730;2023-07-29T05:21:56;91388.28;;;27.61;54.82
59274;BME280;45044;41.572;24.730;2023-07-29T05:24:23;91396.31;;;28.38;52.23
59274;BME280;45044;41.572;24.730;2023-07-29T05:26:50;91395.16;;;28.62;51.41
59274;BME280;45044;41.572;24.730;2023-07-29T05:29:17;91398.69;;;29.08;49.70
59274;BME280;45044;41.572;24.730;2023-07-29T05:31:44;91394.78;;;29.38;48.90
59274;BME280;45044;41.572;24.730;2023-07-29T05:34:11;91390.09;;;29.84;47.84
59274;BME280;45044;41.572;24.730;2023-07-29T05:36:38;91392.75;;;29.96;47.35
59274;BME280;45044;41.572;24.730;2023-07-29T05:39:05;91384.25;;;30.45;46.52
59274;BME280;45044;41.572;24.730;2023-07-29T05:41:33;91385.03;;;30.17;46.62
59274;BME280;45044;41.572;24.730;2023-07-29T05:44:00;91387.13;;;30.59;46.13
59274;BME280;45044;41.572;24.730;2023-07-29T05:46:27;91394.78;;;31.39;43.65
59274;BME280;45044;41.572;24.730;2023-07-29T05:48:59;91392.06;;;31.70;42.97
59274;BME280;45044;41.572;24.730;2023-07-29T05:51:26;91390.31;;;32.23;41.98
59274;BME280;45044;41.572;24.730;2023-07-29T05:53:52;91380.56;;;32.58;40.90
59274;BME280;45044;41.572;24.730;2023-07-29T05:56:19;91386.13;;;32.85;39.72
59274;BME280;45044;41.572;24.730;2023-07-29T05:58:46;91390.03;;;33.42;38.50
59274;BME280;45044;41.572;24.730;2023-07-29T06:01:13;91384.38;;;34.00;38.16
59274;BME280;45044;41.572;24.730;2023-07-29T06:03:41;91384.19;;;34.25;37.87
59274;BME280;45044;41.572;24.730;2023-07-29T06:06:08;91381.66;;;33.40;38.41
59274;BME280;45044;41.572;24.730;2023-07-29T06:08:35;91380.19;;;34.40;36.99
59274;BME280;45044;41.572;24.730;2023-07-29T06:11:02;91376.91;;;35.04;37.03
59274;BME280;45044;41.572;24.730;2023-07-29T06:13:28;91369.31;;;34.61;37.37
59274;BME280;45044;41.572;24.730;2023-07-29T06:15:55;91370.50;;;34.39;37.91
59274;BME280;45044;41.572;24.730;2023-07-29T06:18:22;91368.34;;;34.86;36.72
59274;BME280;45044;41.572;24.730;2023-07-29T06:20:49;91369.25;;;35.66;36.03
59274;BME280;45044;41.572;24.730;2023-07-29T06:23:21;91375.56;;;34.21;37.82
59274;BME280;45044;41.572;24.730;2023-07-29T06:25:48;91365.81;;;34.88;38.09
59274;BME280;45044;41.572;24.730;2023-07-29T06:28:15;91370.91;;;33.75;38.22
59274;BME280;45044;41.572;24.730;2023-07-29T06:30:42;91364.59;;;32.88;40.49
59274;BME280;45044;41.572;24.730;2023-07-29T06:33:09;91362.31;;;32.72;41.40
59274;BME280;45044;41.572;24.730;2023-07-29T06:35:36;91360.56;;;31.61;41.26
59274;BME280;45044;41.572;24.730;2023-07-29T06:38:03;91353.94;;;31.57;42.02
59274;BME280;45044;41.572;24.730;2023-07-29T06:40:30;91360.09;;;31.57;41.82
59274;BME280;45044;41.572;24.730;2023-07-29T06:42:56;91360.78;;;31.63;43.28
59274;BME280;45044;41.572;24.730;2023-07-29T06:45:25;91360.88;;;32.46;39.90
59274;BME280;45044;41.572;24.730;2023-07-29T06:47:52;91362.28;;;33.44;39.17
59274;BME280;45044;41.572;24.730;2023-07-29T06:50:19;91350.06;;;32.02;41.02
59274;BME280;45044;41.572;24.730;2023-07-29T06:52:46;91354.19;;;32.28;42.10
59274;BME280;45044;41.572;24.730;2023-07-29T06:55:13;91356.22;;;31.47;43.51
59274;BME280;45044;41.572;24.730;2023-07-29T06:57:39;91355.09;;;30.57;44.65
59274;BME280;45044;41.572;24.730;2023-07-29T07:00:07;91358.47;;;31.12;45.18
59274;BME280;45044;41.572;24.730;2023-07-29T07:02:35;91354.03;;;31.45;45.46
59274;BME280;45044;41.572;24.730;2023-07-29T07:05:03;91365.34;;;32.24;42.82
59274;BME280;45044;41.572;24.730;2023-07-29T07:07:30;91357.59;;;32.92;40.00
59274;BME280;45044;41.572;24.730;2023-07-29T07:09:57;91356.53;;;33.61;39.07
59274;BME280;45044;41.572;24.730;2023-07-29T07:12:27;91355.19;;;33.68;38.25
59274;BME280;45044;41.572;24.730;2023-07-29T07:14:54;91359.00;;;34.05;38.45
59274;BME280;45044;41.572;24.730;2023-07-29T07:17:20;91353.03;;;34.83;37.82
59274;BME280;45044;41.572;24.730;2023-07-29T07:19:47;91348.97;;;34.62;37.27
59274;BME280;45044;41.572;24.730;2023-07-29T07:22:16;91350.59;;;34.31;37.20
59274;BME280;45044;41.572;24.730;2023-07-29T07:24:44;91339.28;;;34.40;35.35
59274;BME280;45044;41.572;24.730;2023-07-29T07:27:12;91346.91;;;34.41;38.25
59274;BME280;45044;41.572;24.730;2023-07-29T07:29:40;91342.31;;;35.06;37.28
59274;BME280;45044;41.572;24.730;2023-07-29T07:32:07;91349.66;;;34.41;37.07
59274;BME280;45044;41.572;24.730;2023-07-29T07:34:42;91342.06;;;35.18;36.33
59274;BME280;45044;41.572;24.730;2023-07-29T07:37:11;91343.34;;;35.38;37.02
59274;BME280;45044;41.572;24.730;2023-07-29T07:39:39;91333.69;;;34.46;36.31
59274;BME280;45044;41.572;24.730;2023-07-29T07:42:06;91338.13;;;33.67;37.61
59274;BME280;45044;41.572;24.730;2023-07-29T07:44:32;91351.94;;;33.23;39.39
59274;BME280;45044;41.572;24.730;2023-07-29T07:47:00;91342.75;;;34.13;36.84
59274;BME280;45044;41.572;24.730;2023-07-29T07:49:30;91339.88;;;34.19;39.18
59274;BME280;45044;41.572;24.730;2023-07-29T07:51:59;91341.13;;;33.50;37.66
59274;BME280;45044;41.572;24.730;2023-07-29T07:54:27;91348.94;;;33.87;38.08
59274;BME280;45044;41.572;24.730;2023-07-29T07:56:54;91340.94;;;32.96;38.29
59274;BME280;45044;41.572;24.730;2023-07-29T07:59:21;91338.38;;;31.82;39.17
59274;BME280;45044;41.572;24.730;2023-07-29T08:01:48;91336.22;;;31.75;40.80
59274;BME280;45044;41.572;24.730;2023-07-29T08:04:15;91346.66;;;30.67;40.50
59274;BME280;45044;41.572;24.730;2023-07-29T08:06:42;91338.31;;;31.01;38.97
59274;BME280;45044;41.572;24.730;2023-07-29T08:09:08;91338.56;;;30.01;41.69
59274;BME280;45044;41.572;24.730;2023-07-29T08:11:35;91340.38;;;30.41;42.75
59274;BME280;45044;41.572;24.730;2023-07-29T08:14:02;91337.19;;;28.86;42.77
59274;BME280;45044;41.572;24.730;2023-07-29T08:16:29;91347.38;;;28.24;45.47
59274;BME280;45044;41.572;24.730;2023-07-29T08:18:56;91345.16;;;28.34;44.86
59274;BME280;45044;41.572;24.730;2023-07-29T08:21:22;91337.63;;;28.44;46.16
59274;BME280;45044;41.572;24.730;2023-07-29T08:23:49;91333.56;;;28.10;47.38
59274;BME280;45044;41.572;24.730;2023-07-29T08:26:16;91339.13;;;27.95;47.53
59274;BME280;45044;41.572;24.730;2023-07-29T08:28:43;91339.78;;;27.73;46.73
59274;BME280;45044;41.572;24.730;2023-07-29T08:31:10;91328.69;;;27.27;46.45
59274;BME280;45044;41.572;24.730;2023-07-29T08:33:37;91323.63;;;27.08;47.53
59274;BME280;45044;41.572;24.730;2023-07-29T08:36:04;91315.88;;;26.89;47.13
59274;BME280;45044;41.572;24.730;2023-07-29T08:38:33;91323.72;;;27.20;47.50
59274;BME280;45044;41.572;24.730;2023-07-29T08:41:28;91320.75;;;27.18;48.07
59274;BME280;45044;41.572;24.730;2023-07-29T08:44:08;91325.47;;;27.67;49.18
59274;BME280;45044;41.572;24.730;2023-07-29T08:46:39;91312.31;;;27.80;50.55
59274;BME280;45044;41.572;24.730;2023-07-29T08:49:07;91313.34;;;27.45;48.13
59274;BME280;45044;41.572;24.730;2023-07-29T08:51:35;91318.47;;;27.43;50.13
59274;BME280;45044;41.572;24.730;2023-07-29T08:54:03;91311.31;;;27.34;49.17
59274;BME280;45044;41.572;24.730;2023-07-29T08:56:31;91311.69;;;27.15;50.34
59274;BME280;45044;41.572;24.730;2023-07-29T08:58:58;91306.41;;;27.00;51.15
59274;BME280;45044;41.572;24.730;2023-07-29T09:01:27;91300.63;;;26.81;52.27
59274;BME280;45044;41.572;24.730;2023-07-29T09:03:55;91309.34;;;26.70;53.38
59274;BME280;45044;41.572;24.730;2023-07-29T09:06:23;91301.56;;;27.04;52.72
59274;BME280;45044;41.572;24.730;2023-07-29T09:08:54;91303.16;;;26.96;52.11
59274;BME280;45044;41.572;24.730;2023-07-29T09:11:23;91303.56;;;27.09;49.98
59274;BME280;45044;41.572;24.730;2023-07-29T09:13:51;91304.22;;;26.45;52.23
59274;BME280;45044;41.572;24.730;2023-07-29T09:16:20;91307.81;;;26.36;54.23
59274;BME280;45044;41.572;24.730;2023-07-29T09:18:51;91301.34;;;26.28;55.24
59274;BME280;45044;41.572;24.730;2023-07-29T09:21:23;91316.31;;;26.08;53.57
59274;BME280;45044;41.572;24.730;2023-07-29T09:23:51;91295.81;;;26.37;54.44
59274;BME280;45044;41.572;24.730;2023-07-29T09:26:25;91302.31;;;26.78;56.68
59274;BME280;45044;41.572;24.730;2023-07-29T09:28:54;91297.59;;;26.73;54.79
59274;BME280;45044;41.572;24.730;2023-07-29T09:31:23;91293.94;;;27.02;53.20
59274;BME280;45044;41.572;24.730;2023-07-29T09:34:02;91300.72;;;27.30;53.97
59274;BME280;45044;41.572;24.730;2023-07-29T09:36:33;91292.38;;;27.28;54.09
59274;BME280;45044;41.572;24.730;2023-07-29T09:39:03;91286.41;;;27.12;54.58
59274;BME280;45044;41.572;24.730;2023-07-29T09:41:30;91282.25;;;27.11;55.78
59274;BME280;45044;41.572;24.730;2023-07-29T09:44:02;91279.44;;;27.38;52.40
59274;BME280;45044;41.572;24.730;2023-07-29T09:46:34;91276.34;;;26.81;55.31
59274;BME280;45044;41.572;24.730;2023-07-29T09:49:06;91280.69;;;27.37;52.94
59274;BME280;45044;41.572;24.730;2023-07-29T09:51:38;91278.19;;;27.71;59.32
59274;BME280;45044;41.572;24.730;2023-07-29T09:54:07;91281.72;;;28.01;54.29
59274;BME280;45044;41.572;24.730;2023-07-29T09:56:39;91281.59;;;27.72;55.22
59274;BME280;45044;41.572;24.730;2023-07-29T09:59:11;91268.09;;;27.22;55.63
59274;BME280;45044;41.572;24.730;2023-07-29T10:01:39;91264.75;;;27.45;57.27
59274;BME280;45044;41.572;24.730;2023-07-29T10:04:12;91263.66;;;27.69;60.05
59274;BME280;45044;41.572;24.730;2023-07-29T10:06:45;91267.69;;;27.91;53.51
59274;BME280;45044;41.572;24.730;2023-07-29T10:09:13;91262.94;;;27.74;55.36
59274;BME280;45044;41.572;24.730;2023-07-29T10:11:41;91258.38;;;28.03;54.80
59274;BME280;45044;41.572;24.730;2023-07-29T10:14:09;91258.34;;;27.92;52.84
59274;BME280;45044;41.572;24.730;2023-07-29T10:16:47;91257.66;;;27.97;54.01
59274;BME280;45044;41.572;24.730;2023-07-29T10:19:16;91252.03;;;28.18;52.12
59274;BME280;45044;41.572;24.730;2023-07-29T10:21:48;91266.31;;;28.30;53.56
59274;BME280;45044;41.572;24.730;2023-07-29T10:24:29;91251.38;;;28.52;54.65
59274;BME280;45044;41.572;24.730;2023-07-29T10:26:59;91247.16;;;28.33;51.52
59274;BME280;45044;41.572;24.730;2023-07-29T10:29:30;91251.03;;;28.04;51.00
59274;BME280;45044;41.572;24.730;2023-07-29T10:32:04;91253.03;;;28.15;50.15
59274;BME280;45044;41.572;24.730;2023-07-29T10:34:33;91247.50;;;27.74;50.26
59274;BME280;45044;41.572;24.730;2023-07-29T10:37:07;91235.22;;;27.79;52.43
59274;BME280;45044;41.572;24.730;2023-07-29T10:39:39;91240.16;;;27.75;53.53
59274;BME280;45044;41.572;24.730;2023-07-29T10:42:11;91237.31;;;28.19;54.25
59274;BME280;45044;41.572;24.730;2023-07-29T10:47:16;91234.38;;;28.28;56.63
59274;BME280;45044;41.572;24.730;2023-07-29T10:49:59;91236.34;;;28.33;50.34
59274;BME280;45044;41.572;24.730;2023-07-29T10:54:56;91229.03;;;28.74;50.51
59274;BME280;45044;41.572;24.730;2023-07-29T10:57:39;91230.75;;;28.66;56.44
59274;BME280;45044;41.572;24.730;2023-07-29T11:00:09;91234.19;;;28.61;53.93
59274;BME280;45044;41.572;24.730;2023-07-29T11:02:38;91233.16;;;28.29;54.92
59274;BME280;45044;41.572;24.730;2023-07-29T11:05:08;91240.81;;;28.37;51.77
59274;BME280;45044;41.572;24.730;2023-07-29T11:07:46;91241.31;;;28.75;51.79
59274;BME280;45044;41.572;24.730;2023-07-29T11:10:15;91236.88;;;28.84;51.17
59274;BME280;45044;41.572;24.730;2023-07-29T11:12:48;91227.53;;;29.08;50.14
59274;BME280;45044;41.572;24.730;2023-07-29T11:15:25;91233.19;;;28.98;50.08
59274;BME280;45044;41.572;24.730;2023-07-29T11:17:57;91221.84;;;29.23;49.17
59274;BME280;45044;41.572;24.730;2023-07-29T11:20:30;91225.81;;;29.04;49.85
59274;BME280;45044;41.572;24.730;2023-07-29T11:23:02;91234.94;;;28.78;48.85
59274;BME280;45044;41.572;24.730;2023-07-29T11:25:31;91220.41;;;28.87;50.75
59274;BME280;45044;41.572;24.730;2023-07-29T11:28:00;91231.91;;;29.34;50.07
59274;BME280;45044;41.572;24.730;2023-07-29T11:30:32;91226.03;;;29.18;51.92
59274;BME280;45044;41.572;24.730;2023-07-29T11:33:00;91225.56;;;28.91;50.32
59274;BME280;45044;41.572;24.730;2023-07-29T11:35:28;91219.19;;;28.83;50.84
59274;BME280;45044;41.572;24.730;2023-07-29T11:37:55;91218.72;;;28.50;52.03
59274;BME280;45044;41.572;24.730;2023-07-29T11:40:25;91221.91;;;28.77;50.70
59274;BME280;45044;41.572;24.730;2023-07-29T11:42:54;91218.16;;;29.20;50.55
59274;BME280;45044;41.572;24.730;2023-07-29T11:45:22;91223.09;;;29.22;48.39
59274;BME280;45044;41.572;24.730;2023-07-29T11:48:13;91219.41;;;28.96;50.16
59274;BME280;45044;41.572;24.730;2023-07-29T11:50:49;91209.84;;;28.84;48.87
59274;BME280;45044;41.572;24.730;2023-07-29T11:53:27;91219.13;;;28.14;49.21
59274;BME280;45044;41.572;24.730;2023-07-29T11:55:55;91219.16;;;28.25;47.96
59274;BME280;45044;41.572;24.730;2023-07-29T11:58:24;91228.50;;;28.24;49.28
59274;BME280;45044;41.572;24.730;2023-07-29T12:00:53;91220.91;;;28.40;51.28
59274;BME280;45044;41.572;24.730;2023-07-29T12:03:20;91220.53;;;27.92;51.38
59274;BME280;45044;41.572;24.730;2023-07-29T12:05:48;91218.44;;;28.36;52.09
59274;BME280;45044;41.572;24.730;2023-07-29T12:08:16;91210.84;;;28.57;53.60
59274;BME280;45044;41.572;24.730;2023-07-29T12:10:43;91217.97;;;28.55;53.59
59274;BME280;45044;41.572;24.730;2023-07-29T12:13:15;91213.56;;;28.46;50.97
59274;BME280;45044;41.572;24.730;2023-07-29T12:15:52;91213.06;;;28.48;49.71
59274;BME280;45044;41.572;24.730;2023-07-29T12:18:32;91213.25;;;28.90;49.47
59274;BME280;45044;41.572;24.730;2023-07-29T12:21:00;91212.53;;;28.95;47.43
59274;BME280;45044;41.572;24.730;2023-07-29T12:23:30;91211.84;;;28.66;48.23
59274;BME280;45044;41.572;24.730;2023-07-29T12:26:00;91214.53;;;28.60;50.51
59274;BME280;45044;41.572;24.730;2023-07-29T12:28:30;91211.31;;;28.50;51.64
59274;BME280;45044;41.572;24.730;2023-07-29T12:30:57;91209.88;;;28.55;53.05
59274;BME280;45044;41.572;24.730;2023-07-29T12:33:32;91216.25;;;28.40;51.54
59274;BME280;45044;41.572;24.730;2023-07-29T12:35:59;91215.94;;;28.27;50.90
59274;BME280;45044;41.572;24.730;2023-07-29T12:38:26;91209.09;;;28.31;53.67
59274;BME280;45044;41.572;24.730;2023-07-29T12:41:00;91218.69;;;28.55;59.89
59274;BME280;45044;41.572;24.730;2023-07-29T12:43:27;91204.66;;;28.34;54.13
59274;BME280;45044;41.572;24.730;2023-07-29T12:45:57;91204.16;;;28.18;53.37
59274;BME280;45044;41.572;24.730;2023-07-29T12:48:26;91204.72;;;27.61;54.44
59274;BME280;45044;41.572;24.730;2023-07-29T12:51:01;91208.75;;;27.83;52.77
59274;BME280;45044;41.572;24.730;2023-07-29T12:53:29;91206.38;;;28.20;58.42
59274;BME280;45044;41.572;24.730;2023-07-29T12:56:01;91211.56;;;28.35;60.06
59274;BME280;45044;41.572;24.730;2023-07-29T12:58:28;91205.38;;;28.23;54.16
59274;BME280;45044;41.572;24.730;2023-07-29T13:00:56;91212.72;;;28.05;50.56
59274;BME280;45044;41.572;24.730;2023-07-29T13:03:25;91212.97;;;28.02;50.66
59274;BME280;45044;41.572;24.730;2023-07-29T13:05:54;91214.63;;;27.76;51.87